sensor_id;sensor_type;location;lat;lon;timestamp;pressure;altitude;pressure_sealevel;temperature;humidity
6778;BME280;3426;52.244;10.534;2022-10-17T12:51:16;101131.47;;;23.73;56.92
6778;BME280;3426;52.244;10.534;2022-10-17T12:54:12;101138.22;;;23.95;54.51
6778;BME280;3426;52.244;10.534;2022-10-17T12:56:43;101130.88;;;24.05;54.66
6778;BME280;3426;52.244;10.534;2022-10-17T13:01:43;101127.19;;;24.15;54.50
6778;BME280;3426;52.244;10.534;2022-10-17T13:04:11;101133.09;;;24.36;53.66
6778;BME280;3426;52.244;10.534;2022-10-17T13:06:47;101129.31;;;24.29;54.45
6778;BME280;3426;52.244;10.534;2022-10-17T13:09:19;101131.75;;;24.74;51.54
6778;BME280;3426;52.244;10.534;2022-10-17T13:11:49;101138.75;;;24.25;52.31
6778;BME280;3426;52.244;10.534;2022-10-17T13:14:18;101135.69;;;24.46;52.30
6778;BME280;3426;52.244;10.534;2022-10-17T13:16:54;101139.28;;;24.28;53.40
6778;BME280;3426;52.244;10.534;2022-10-17T13:19:28;101141.63;;;24.23;52.22
6778;BME280;3426;52.244;10.534;2022-10-17T13:21:58;101134.69;;;24.55;51.24
6778;BME280;3426;52.244;10.534;2022-10-17T13:24:33;101146.66;;;24.18;53.07
6778;BME280;3426;52.244;10.534;2022-10-17T13:27:00;101159.88;;;24.21;52.84
6778;BME280;3426;52.244;10.534;2022-10-17T13:29:27;101149.88;;;24.22;53.99
6778;BME280;3426;52.244;10.534;2022-10-17T13:31:58;101161.38;;;24.42;52.92
6778;BME280;3426;52.244;10.534;2022-10-17T13:34:27;101163.47;;;24.56;52.98
6778;BME280;3426;52.244;10.534;2022-10-17T13:36:56;101165.50;;;24.54;52.30
6778;BME280;3426;52.244;10.534;2022-10-17T13:39:32;101155.84;;;24.51;52.10
6778;BME280;3426;52.244;10.534;2022-10-17T13:42:25;101168.56;;;24.33;52.36
6778;BME280;3426;52.244;10.534;2022-10-17T13:44:53;101177.72;;;24.58;52.57
6778;BME280;3426;52.244;10.534;2022-10-17T13:47:26;101177.16;;;24.46;52.07
6778;BME280;3426;52.244;10.534;2022-10-17T13:49:54;101173.81;;;24.61;52.18
6778;BME280;3426;52.244;10.534;2022-10-17T13:52:27;101166.69;;;24.51;52.24
6778;BME280;3426;52.244;10.534;2022-10-17T13:55:11;101173.53;;;24.72;51.71
6778;BME280;3426;52.244;10.534;2022-10-17T13:57:42;101168.13;;;24.72;51.54
6778;BME280;3426;52.244;10.534;2022-10-17T14:00:19;101179.50;;;24.75;51.77
6778;BME280;3426;52.244;10.534;2022-10-17T14:02:47;101176.94;;;24.40;52.66
6778;BME280;3426;52.244;10.534;2022-10-17T14:05:18;101176.34;;;24.28;54.05
6778;BME280;3426;52.244;10.534;2022-10-17T14:10:41;101179.16;;;24.44;53.82
6778;BME280;3426;52.244;10.534;2022-10-17T14:13:23;101180.25;;;24.59;53.32
6778;BME280;3426;52.244;10.534;2022-10-17T14:15:52;101176.81;;;24.49;53.57
6778;BME280;3426;52.244;10.534;2022-10-17T14:18:23;101174.00;;;24.59;53.75
6778;BME280;3426;52.244;10.534;2022-10-17T14:20:51;101169.13;;;24.63;53.71
6778;BME280;3426;52.244;10.534;2022-10-17T14:23:41;101173.16;;;24.58;54.38
6778;BME280;3426;52.244;10.534;2022-10-17T14:26:12;101171.19;;;24.77;54.13
6778;BME280;3426;52.244;10.534;2022-10-17T14:28:42;101168.28;;;24.62;54.77
6778;BME280;3426;52.244;10.534;2022-10-17T14:31:21;101173.25;;;24.49;54.79
6778;BME280;3426;52.244;10.534;2022-10-17T14:33:52;101183.34;;;24.65;54.43
6778;BME280;3426;52.244;10.534;2022-10-17T14:36:19;101191.06;;;24.85;54.25
6778;BME280;3426;52.244;10.534;2022-10-17T14:38:49;101194.56;;;24.78;54.39
6778;BME280;3426;52.244;10.534;2022-10-17T14:41:26;101198.91;;;24.37;55.98
6778;BME280;3426;52.244;10.534;2022-10-17T14:44:37;101203.97;;;24.66;54.14
6778;BME280;3426;52.244;10.534;2022-10-17T14:47:04;101202.97;;;24.67;54.67
6778;BME280;3426;52.244;10.534;2022-10-17T14:50:46;101215.84;;;24.39;55.34
6778;BME280;3426;52.244;10.534;2022-10-17T14:53:04;101214.31;;;24.36;54.91
6778;BME280;3426;52.244;10.534;2022-10-17T14:55:34;101216.94;;;24.28;55.30
6778;BME280;3426;52.244;10.534;2022-10-17T14:58:01;101212.44;;;24.37;54.98
6778;BME280;3426;52.244;10.534;2022-10-17T15:00:40;101218.16;;;24.51;55.00
6778;BME280;3426;52.244;10.534;2022-10-17T15:03:06;101216.53;;;24.41;54.99
6778;BME280;3426;52.244;10.534;2022-10-17T15:05:33;101220.56;;;24.63;54.81
6778;BME280;3426;52.244;10.534;2022-10-17T15:08:00;101223.69;;;24.24;55.35
6778;BME280;3426;52.244;10.534;2022-10-17T15:10:31;101221.06;;;24.58;54.49
6778;BME280;3426;52.244;10.534;2022-10-17T15:12:59;101234.78;;;24.39;55.19
6778;BME280;3426;52.244;10.534;2022-10-17T15:15:47;101230.28;;;24.47;55.57
6778;BME280;3426;52.244;10.534;2022-10-17T15:18:16;101240.22;;;24.65;54.88
6778;BME280;3426;52.244;10.534;2022-10-17T15:20:42;101232.19;;;24.81;54.14
6778;BME280;3426;52.244;10.534;2022-10-17T15:23:09;101237.09;;;24.51;55.42
6778;BME280;3426;52.244;10.534;2022-10-17T15:25:35;101235.38;;;24.50;55.52
6778;BME280;3426;52.244;10.534;2022-10-17T15:28:02;101241.72;;;24.67;55.43
6778;BME280;3426;52.244;10.534;2022-10-17T15:30:33;101239.66;;;23.91;58.10
6778;BME280;3426;52.244;10.534;2022-10-17T15:32:59;101243.75;;;24.39;56.97
6778;BME280;3426;52.244;10.534;2022-10-17T15:35:27;101238.44;;;24.55;55.73
6778;BME280;3426;52.244;10.534;2022-10-17T15:37:53;101246.09;;;24.34;57.13
6778;BME280;3426;52.244;10.534;2022-10-17T15:40:22;101260.72;;;24.41;56.79
6778;BME280;3426;52.244;10.534;2022-10-17T15:42:49;101256.69;;;24.10;57.80
6778;BME280;3426;52.244;10.534;2022-10-17T15:45:17;101253.28;;;24.25;57.23
6778;BME280;3426;52.244;10.534;2022-10-17T15:47:56;101264.84;;;23.92;58.48
6778;BME280;3426;52.244;10.534;2022-10-17T15:50:25;101261.44;;;24.08;58.29
6778;BME280;3426;52.244;10.534;2022-10-17T15:52:54;101267.56;;;23.74;59.21
6778;BME280;3426;52.244;10.534;2022-10-17T15:55:21;101263.03;;;23.65;59.62
6778;BME280;3426;52.244;10.534;2022-10-17T15:57:47;101267.94;;;23.97;58.64
6778;BME280;3426;52.244;10.534;2022-10-17T16:00:22;101270.66;;;23.51;60.25
6778;BME280;3426;52.244;10.534;2022-10-17T16:02:49;101282.25;;;23.89;59.27
6778;BME280;3426;52.244;10.534;2022-10-17T16:05:23;101283.56;;;23.58;60.21
6778;BME280;3426;52.244;10.534;2022-10-17T16:07:54;101286.19;;;23.22;61.48
6778;BME280;3426;52.244;10.534;2022-10-17T16:10:22;101289.63;;;23.14;61.66
6778;BME280;3426;52.244;10.534;2022-10-17T16:12:48;101298.72;;;23.23;61.54
6778;BME280;3426;52.244;10.534;2022-10-17T16:15:21;101292.44;;;23.77;59.82
6778;BME280;3426;52.244;10.534;2022-10-17T16:17:52;101294.44;;;23.75;59.74
6778;BME280;3426;52.244;10.534;2022-10-17T16:20:19;101304.41;;;23.93;59.06
6778;BME280;3426;52.244;10.534;2022-10-17T16:22:46;101305.19;;;23.85;59.22
6778;BME280;3426;52.244;10.534;2022-10-17T16:25:22;101303.28;;;23.95;58.89
6778;BME280;3426;52.244;10.534;2022-10-17T16:27:50;101303.56;;;23.92;58.98
6778;BME280;3426;52.244;10.534;2022-10-17T16:30:18;101301.03;;;23.91;59.15
6778;BME280;3426;52.244;10.534;2022-10-17T16:32:45;101300.47;;;23.87;59.44
6778;BME280;3426;52.244;10.534;2022-10-17T16:35:17;101311.66;;;23.74;59.93
6778;BME280;3426;52.244;10.534;2022-10-17T16:37:44;101322.03;;;23.79;59.98
6778;BME280;3426;52.244;10.534;2022-10-17T16:40:11;101312.75;;;23.82;60.04
6778;BME280;3426;52.244;10.534;2022-10-17T16:42:37;101320.88;;;23.82;59.86
6778;BME280;3426;52.244;10.534;2022-10-17T16:45:04;101321.47;;;23.75;60.27
6778;BME280;3426;52.244;10.534;2022-10-17T16:47:31;101334.59;;;23.70;60.11
6778;BME280;3426;52.244;10.534;2022-10-17T16:49:57;101333.72;;;23.42;61.22
6778;BME280;3426;52.244;10.534;2022-10-17T16:52:24;101331.56;;;23.56;61.25
6778;BME280;3426;52.244;10.534;2022-10-17T16:54:50;101329.69;;;23.66;60.54
6778;BME280;3426;52.244;10.534;2022-10-17T16:57:17;101343.84;;;23.40;61.47
6778;BME280;3426;52.244;10.534;2022-10-17T16:59:44;101347.75;;;23.28;62.09
6778;BME280;3426;52.244;10.534;2022-10-17T17:02:10;101346.25;;;23.16;62.92
6778;BME280;3426;52.244;10.534;2022-10-17T17:04:37;101359.84;;;23.24;62.84
6778;BME280;3426;52.244;10.534;2022-10-17T17:07:04;101349.97;;;23.05;63.42
6778;BME280;3426;52.244;10.534;2022-10-17T17:09:30;101348.53;;;23.11;63.21
6778;BME280;3426;52.244;10.534;2022-10-17T17:11:56;101354.69;;;23.03;63.54
6778;BME280;3426;52.244;10.534;2022-10-17T17:14:23;101358.25;;;23.04;63.71
6778;BME280;3426;52.244;10.534;2022-10-17T17:16:49;101353.53;;;23.06;63.65
6778;BME280;3426;52.244;10.534;2022-10-17T17:19:16;101364.25;;;22.88;64.43
6778;BME280;3426;52.244;10.534;2022-10-17T17:21:43;101360.81;;;22.95;64.22
6778;BME280;3426;52.244;10.534;2022-10-17T17:24:17;101358.41;;;22.73;65.30
6778;BME280;3426;52.244;10.534;2022-10-17T17:26:50;101364.50;;;22.85;64.99
6778;BME280;3426;52.244;10.534;2022-10-17T17:29:17;101377.59;;;22.89;64.80
6778;BME280;3426;52.244;10.534;2022-10-17T17:31:44;101372.34;;;22.78;65.22
6778;BME280;3426;52.244;10.534;2022-10-17T17:34:10;101377.03;;;22.66;65.80
6778;BME280;3426;52.244;10.534;2022-10-17T17:36:42;101375.50;;;22.64;66.15
6778;BME280;3426;52.244;10.534;2022-10-17T17:39:11;101376.78;;;22.60;66.24
6778;BME280;3426;52.244;10.534;2022-10-17T17:41:39;101385.03;;;22.48;66.96
6778;BME280;3426;52.244;10.534;2022-10-17T17:44:06;101393.25;;;22.57;66.59
6778;BME280;3426;52.244;10.534;2022-10-17T17:46:40;101387.88;;;22.18;67.90
6778;BME280;3426;52.244;10.534;2022-10-17T17:49:10;101398.88;;;21.95;69.48
6778;BME280;3426;52.244;10.534;2022-10-17T17:51:37;101397.84;;;21.87;69.86
6778;BME280;3426;52.244;10.534;2022-10-17T17:54:03;101405.19;;;21.75;70.70
6778;BME280;3426;52.244;10.534;2022-10-17T17:56:30;101415.81;;;22.17;69.16
6778;BME280;3426;52.244;10.534;2022-10-17T17:58:59;101413.19;;;22.06;69.70
6778;BME280;3426;52.244;10.534;2022-10-17T18:01:29;101420.34;;;22.16;69.10
6778;BME280;3426;52.244;10.534;2022-10-17T18:03:57;101410.88;;;21.82;70.96
6778;BME280;3426;52.244;10.534;2022-10-17T18:06:25;101419.56;;;21.85;70.46
6778;BME280;3426;52.244;10.534;2022-10-17T18:08:54;101416.53;;;22.19;68.67
6778;BME280;3426;52.244;10.534;2022-10-17T18:11:21;101416.97;;;22.24;68.46
6778;BME280;3426;52.244;10.534;2022-10-17T18:13:59;101410.28;;;22.28;68.11
6778;BME280;3426;52.244;10.534;2022-10-17T18:16:27;101413.34;;;22.04;69.19
6778;BME280;3426;52.244;10.534;2022-10-17T18:18:54;101417.03;;;21.93;69.88
6778;BME280;3426;52.244;10.534;2022-10-17T18:21:21;101421.13;;;21.48;71.24
6778;BME280;3426;52.244;10.534;2022-10-17T18:23:48;101418.31;;;21.99;69.62
6778;BME280;3426;52.244;10.534;2022-10-17T18:26:15;101415.63;;;22.09;68.73
6778;BME280;3426;52.244;10.534;2022-10-17T18:28:42;101418.63;;;21.65;70.22
6778;BME280;3426;52.244;10.534;2022-10-17T18:31:14;101439.69;;;21.81;70.32
6778;BME280;3426;52.244;10.534;2022-10-17T18:33:44;101436.31;;;21.89;70.25
6778;BME280;3426;52.244;10.534;2022-10-17T18:36:12;101437.31;;;21.88;70.60
6778;BME280;3426;52.244;10.534;2022-10-17T18:38:40;101443.94;;;21.74;71.82
6778;BME280;3426;52.244;10.534;2022-10-17T18:41:09;101446.13;;;21.59;72.15
6778;BME280;3426;52.244;10.534;2022-10-17T18:43:38;101456.59;;;21.53;72.75
6778;BME280;3426;52.244;10.534;2022-10-17T18:46:10;101448.97;;;21.58;72.70
6778;BME280;3426;52.244;10.534;2022-10-17T18:48:41;101445.03;;;21.62;72.39
6778;BME280;3426;52.244;10.534;2022-10-17T18:51:14;101459.38;;;21.72;71.88
6778;BME280;3426;52.244;10.534;2022-10-17T18:53:43;101462.47;;;21.37;73.15
6778;BME280;3426;52.244;10.534;2022-10-17T18:56:10;101464.31;;;21.57;72.93
6778;BME280;3426;52.244;10.534;2022-10-17T18:58:38;101466.72;;;20.98;75.80
6778;BME280;3426;52.244;10.534;2022-10-17T19:01:12;101470.22;;;20.88;76.52
6778;BME280;3426;52.244;10.534;2022-10-17T19:03:44;101471.19;;;20.67;77.78
6778;BME280;3426;52.244;10.534;2022-10-17T19:06:13;101469.56;;;21.17;75.26
6778;BME280;3426;52.244;10.534;2022-10-17T19:08:41;101477.69;;;21.27;74.74
6778;BME280;3426;52.244;10.534;2022-10-17T19:11:09;101470.84;;;20.81;76.24
6778;BME280;3426;52.244;10.534;2022-10-17T19:13:36;101477.38;;;20.78;77.37
6778;BME280;3426;52.244;10.534;2022-10-17T19:16:06;101462.81;;;21.02;76.36
6778;BME280;3426;52.244;10.534;2022-10-17T19:18:33;101466.81;;;20.54;78.52
6778;BME280;3426;52.244;10.534;2022-10-17T19:21:05;101467.66;;;21.08;76.44
6778;BME280;3426;52.244;10.534;2022-10-17T19:23:33;101466.88;;;21.17;75.77
6778;BME280;3426;52.244;10.534;2022-10-17T19:26:07;101460.63;;;20.96;76.69
6778;BME280;3426;52.244;10.534;2022-10-17T19:28:35;101460.25;;;21.00;75.77
6778;BME280;3426;52.244;10.534;2022-10-17T19:31:04;101462.31;;;20.76;77.33
6778;BME280;3426;52.244;10.534;2022-10-17T19:33:31;101472.91;;;20.88;77.29
6778;BME280;3426;52.244;10.534;2022-10-17T19:36:00;101476.84;;;20.84;77.84
6778;BME280;3426;52.244;10.534;2022-10-17T19:38:27;101469.03;;;21.02;76.87
6778;BME280;3426;52.244;10.534;2022-10-17T19:40:53;101468.53;;;20.87;77.07
6778;BME280;3426;52.244;10.534;2022-10-17T19:43:20;101481.47;;;20.94;77.57
6778;BME280;3426;52.244;10.534;2022-10-17T19:45:59;101478.88;;;20.92;77.27
6778;BME280;3426;52.244;10.534;2022-10-17T19:48:26;101484.16;;;20.61;79.58
6778;BME280;3426;52.244;10.534;2022-10-17T19:50:53;101490.41;;;20.94;77.45
6778;BME280;3426;52.244;10.534;2022-10-17T19:53:23;101478.72;;;20.73;79.10
6778;BME280;3426;52.244;10.534;2022-10-17T19:55:50;101478.53;;;20.85;78.05
6778;BME280;3426;52.244;10.534;2022-10-17T19:58:16;101483.34;;;20.82;77.99
6778;BME280;3426;52.244;10.534;2022-10-17T20:00:54;101478.44;;;20.44;80.15
6778;BME280;3426;52.244;10.534;2022-10-17T20:03:23;101471.72;;;20.49;79.74
6778;BME280;3426;52.244;10.534;2022-10-17T20:05:50;101483.47;;;20.37;81.27
6778;BME280;3426;52.244;10.534;2022-10-17T20:08:17;101482.69;;;20.03;82.84
6778;BME280;3426;52.244;10.534;2022-10-17T20:10:44;101484.88;;;20.09;82.34
6778;BME280;3426;52.244;10.534;2022-10-17T20:13:12;101488.69;;;20.61;80.16
6778;BME280;3426;52.244;10.534;2022-10-17T20:15:39;101494.22;;;20.59;79.91
6778;BME280;3426;52.244;10.534;2022-10-17T20:18:06;101485.28;;;20.48;79.73
6778;BME280;3426;52.244;10.534;2022-10-17T20:20:34;101498.50;;;20.51;80.56
6778;BME280;3426;52.244;10.534;2022-10-17T20:23:01;101512.31;;;20.57;80.35
6778;BME280;3426;52.244;10.534;2022-10-17T20:25:28;101511.22;;;20.60;79.85
6778;BME280;3426;52.244;10.534;2022-10-17T20:27:54;101521.72;;;20.41;80.68
6778;BME280;3426;52.244;10.534;2022-10-17T20:30:20;101530.31;;;20.23;82.25
6778;BME280;3426;52.244;10.534;2022-10-17T20:32:47;101535.94;;;20.43;80.86
6778;BME280;3426;52.244;10.534;2022-10-17T20:35:13;101543.03;;;20.55;80.55
6778;BME280;3426;52.244;10.534;2022-10-17T20:37:40;101549.84;;;20.59;80.52
6778;BME280;3426;52.244;10.534;2022-10-17T20:40:08;101545.97;;;20.52;81.05
6778;BME280;3426;52.244;10.534;2022-10-17T20:42:56;101560.03;;;20.33;81.62
6778;BME280;3426;52.244;10.534;2022-10-17T20:45:22;101557.22;;;20.23;82.13
6778;BME280;3426;52.244;10.534;2022-10-17T20:48:12;101563.56;;;20.56;80.94
6778;BME280;3426;52.244;10.534;2022-10-17T20:50:41;101572.72;;;20.64;80.42
6778;BME280;3426;52.244;10.534;2022-10-17T20:53:08;101571.88;;;20.30;82.55
6778;BME280;3426;52.244;10.534;2022-10-17T20:56:05;101568.25;;;20.54;80.79
6778;BME280;3426;52.244;10.534;2022-10-17T20:58:32;101569.19;;;20.42;81.85
6778;BME280;3426;52.244;10.534;2022-10-17T21:01:04;101571.66;;;20.22;82.74
6778;BME280;3426;52.244;10.534;2022-10-17T21:03:34;101581.44;;;20.57;80.62
6778;BME280;3426;52.244;10.534;2022-10-17T21:06:00;101584.38;;;20.54;81.28
6778;BME280;3426;52.244;10.534;2022-10-17T21:08:27;101596.06;;;19.63;87.37
6778;BME280;3426;52.244;10.534;2022-10-17T21:10:53;101596.47;;;19.81;87.14
6778;BME280;3426;52.244;10.534;2022-10-17T21:13:20;101603.66;;;19.69;88.78
6778;BME280;3426;52.244;10.534;2022-10-17T21:15:46;101600.50;;;19.87;87.32
6778;BME280;3426;52.244;10.534;2022-10-17T21:18:13;101603.25;;;19.74;89.04
6778;BME280;3426;52.244;10.534;2022-10-17T21:20:39;101600.16;;;19.56;90.50
6778;BME280;3426;52.244;10.534;2022-10-17T21:23:05;101594.69;;;19.33;92.79
6778;BME280;3426;52.244;10.534;2022-10-17T21:25:32;101593.41;;;19.74;91.44
6778;BME280;3426;52.244;10.534;2022-10-17T21:27:58;101584.13;;;20.23;87.39
6778;BME280;3426;52.244;10.534;2022-10-17T21:30:25;101586.69;;;20.25;86.60
6778;BME280;3426;52.244;10.534;2022-10-17T21:32:52;101584.00;;;20.25;86.55
6778;BME280;3426;52.244;10.534;2022-10-17T21:35:20;101595.38;;;20.17;87.03
6778;BME280;3426;52.244;10.534;2022-10-17T21:37:47;101592.81;;;20.04;89.09
6778;BME280;3426;52.244;10.534;2022-10-17T21:40:13;101599.53;;;19.99;89.65
6778;BME280;3426;52.244;10.534;2022-10-17T21:42:40;101602.41;;;19.73;90.74
6778;BME280;3426;52.244;10.534;2022-10-17T21:45:06;101600.63;;;19.96;89.75
6778;BME280;3426;52.244;10.534;2022-10-17T21:47:40;101604.59;;;19.68;92.57
6778;BME280;3426;52.244;10.534;2022-10-17T21:50:26;101602.44;;;19.84;91.18
6778;BME280;3426;52.244;10.534;2022-10-17T21:52:52;101599.03;;;19.82;91.08
6778;BME280;3426;52.244;10.534;2022-10-17T21:55:19;101601.22;;;19.77;91.44
6778;BME280;3426;52.244;10.534;2022-10-17T21:57:45;101596.28;;;19.60;93.55
6778;BME280;3426;52.244;10.534;2022-10-17T22:00:12;101605.44;;;19.33;94.54
6778;BME280;3426;52.244;10.534;2022-10-17T22:02:38;101607.03;;;19.25;95.62
6778;BME280;3426;52.244;10.534;2022-10-17T22:05:05;101605.78;;;19.53;93.69
6778;BME280;3426;52.244;10.534;2022-10-17T22:07:31;101609.81;;;19.23;95.34
6778;BME280;3426;52.244;10.534;2022-10-17T22:09:58;101616.00;;;19.13;96.50
6778;BME280;3426;52.244;10.534;2022-10-17T22:12:25;101632.00;;;19.14;96.88
6778;BME280;3426;52.244;10.534;2022-10-17T22:14:51;101624.75;;;19.39;96.21
6778;BME280;3426;52.244;10.534;2022-10-17T22:17:18;101638.75;;;19.55;93.89
6778;BME280;3426;52.244;10.534;2022-10-17T22:19:46;101642.16;;;19.46;93.69
6778;BME280;3426;52.244;10.534;2022-10-17T22:22:12;101641.97;;;19.60;92.68
6778;BME280;3426;52.244;10.534;2022-10-17T22:24:39;101640.16;;;19.37;94.87
6778;BME280;3426;52.244;10.534;2022-10-17T22:27:05;101628.94;;;19.43;93.89
6778;BME280;3426;52.244;10.534;2022-10-17T22:29:32;101632.94;;;19.37;94.69
6778;BME280;3426;52.244;10.534;2022-10-17T22:31:58;101627.59;;;19.13;96.61
6778;BME280;3426;52.244;10.534;2022-10-17T22:34:24;101636.56;;;19.01;99.04
6778;BME280;3426;52.244;10.534;2022-10-17T22:36:51;101633.47;;;19.18;96.86
6778;BME280;3426;52.244;10.534;2022-10-17T22:39:17;101631.78;;;19.28;95.53
6778;BME280;3426;52.244;10.534;2022-10-17T22:41:44;101623.31;;;19.35;95.57
6778;BME280;3426;52.244;10.534;2022-10-17T22:44:10;101616.34;;;19.08;96.73
6778;BME280;3426;52.244;10.534;2022-10-17T22:46:37;101617.59;;;19.15;96.05
6778;BME280;3426;52.244;10.534;2022-10-17T22:49:03;101620.84;;;19.31;95.01
6778;BME280;3426;52.244;10.534;2022-10-17T22:51:30;101622.06;;;19.39;94.20
6778;BME280;3426;52.244;10.534;2022-10-17T22:53:56;101624.75;;;19.39;93.95
6778;BME280;3426;52.244;10.534;2022-10-17T22:56:23;101620.63;;;19.35;94.26
6778;BME280;3426;52.244;10.534;2022-10-17T22:58:50;101614.25;;;19.36;93.75
6778;BME280;3426;52.244;10.534;2022-10-17T23:01:19;101612.00;;;19.18;94.61
6778;BME280;3426;52.244;10.534;2022-10-17T23:03:46;101620.31;;;19.26;94.61
6778;BME280;3426;52.244;10.534;2022-10-17T23:06:12;101625.69;;;19.26;94.52
6778;BME280;3426;52.244;10.534;2022-10-17T23:08:39;101624.72;;;19.27;94.17
6778;BME280;3426;52.244;10.534;2022-10-17T23:11:07;101627.66;;;19.24;94.50
6778;BME280;3426;52.244;10.534;2022-10-17T23:13:34;101636.22;;;19.29;94.00
6778;BME280;3426;52.244;10.534;2022-10-17T23:16:00;101634.72;;;19.25;94.19
6778;BME280;3426;52.244;10.534;2022-10-17T23:18:27;101633.22;;;19.21;94.24
6778;BME280;3426;52.244;10.534;2022-10-17T23:20:54;101631.31;;;19.23;94.14
6778;BME280;3426;52.244;10.534;2022-10-17T23:23:21;101637.41;;;19.25;94.00
6778;BME280;3426;52.244;10.534;2022-10-17T23:25:48;101640.78;;;19.16;94.67
6778;BME280;3426;52.244;10.534;2022-10-17T23:28:15;101646.88;;;18.94;95.83
6778;BME280;3426;52.244;10.534;2022-10-17T23:30:41;101643.84;;;18.75;99.07
6778;BME280;3426;52.244;10.534;2022-10-17T23:33:10;101653.47;;;18.90;98.32
6778;BME280;3426;52.244;10.534;2022-10-17T23:35:37;101655.13;;;19.04;96.56
6778;BME280;3426;52.244;10.534;2022-10-17T23:38:04;101662.72;;;19.10;95.50
6778;BME280;3426;52.244;10.534;2022-10-17T23:40:30;101661.00;;;18.85;97.24
6778;BME280;3426;52.244;10.534;2022-10-17T23:42:57;101652.53;;;18.78;98.81
6778;BME280;3426;52.244;10.534;2022-10-17T23:45:23;101651.91;;;18.99;96.87
6778;BME280;3426;52.244;10.534;2022-10-17T23:47:50;101658.72;;;18.92;97.25
6778;BME280;3426;52.244;10.534;2022-10-17T23:50:16;101658.25;;;18.98;96.61
6778;BME280;3426;52.244;10.534;2022-10-17T23:52:43;101663.16;;;19.04;96.04
6778;BME280;3426;52.244;10.534;2022-10-17T23:55:09;101658.25;;;18.98;96.44
6778;BME280;3426;52.244;10.534;2022-10-17T23:57:36;101662.66;;;18.99;96.28
